Time;durP1;ratioP1;P1;durP2;ratioP2;P2;SDS_P1;SDS_P2;PMS_P1;PMS_P2;Temp;Humidity;BMP_temperature;BMP_pressure;BME280_temperature;BME280_humidity;BME280_pressure;Samples;Min_cycle;Max_cycle;Signal;HPM_P1;HPM_P2
2023/08/02 00:00:41;;;;;;;2.63;1.40;;;22.50;83.10;;;;;;5049069;28;20411;-71
2023/08/02 00:03:08;;;;;;;2.88;1.55;;;22.50;84.60;;;;;;5049876;28;20964;-71
2023/08/02 00:05:34;;;;;;;4.13;1.50;;;22.40;85.40;;;;;;5048552;28;20425;-71
2023/08/02 00:08:00;;;;;;;4.93;1.45;;;22.40;86.90;;;;;;5048305;28;20874;-71
2023/08/02 00:10:26;;;;;;;2.80;1.50;;;22.50;88.70;;;;;;5049600;28;20412;-71
2023/08/02 00:12:53;;;;;;;3.08;1.50;;;22.50;89.30;;;;;;5046176;28;20501;-71
2023/08/02 00:15:20;;;;;;;4.05;1.50;;;22.50;90.40;;;;;;5043918;28;20460;-71
2023/08/02 00:17:46;;;;;;;3.28;1.63;;;22.60;90.70;;;;;;5032745;28;20419;-71
2023/08/02 00:20:13;;;;;;;7.93;1.80;;;22.50;90.60;;;;;;5043916;28;20489;-71
2023/08/02 00:22:40;;;;;;;9.32;1.77;;;22.50;90.80;;;;;;5044256;28;20496;-71
2023/08/02 00:25:07;;;;;;;11.48;2.05;;;22.50;91.00;;;;;;5047750;28;20481;-71
2023/08/02 00:27:33;;;;;;;7.65;1.90;;;22.50;91.30;;;;;;5048124;28;20424;-71
2023/08/02 00:29:59;;;;;;;7.90;2.00;;;22.40;91.60;;;;;;5053019;28;20909;-71
2023/08/02 00:32:26;;;;;;;7.50;2.30;;;22.40;92.50;;;;;;5048682;28;20424;-71
2023/08/02 00:34:54;;;;;;;6.50;2.67;;;22.40;94.60;;;;;;5031286;28;20403;-71
2023/08/02 00:37:24;;;;;;;5.90;2.60;;;22.50;97.20;;;;;;5048402;28;20538;-71
2023/08/02 00:39:54;;;;;;;6.78;2.83;;;22.60;99.90;;;;;;5049315;28;20498;-71
2023/08/02 00:42:21;;;;;;;7.38;2.60;;;22.70;99.90;;;;;;5050072;28;21017;-72
2023/08/02 00:44:48;;;;;;;7.95;2.70;;;22.80;99.90;;;;;;5050378;28;20453;-72
2023/08/02 00:47:14;;;;;;;6.00;2.50;;;22.90;99.90;;;;;;5061525;28;20736;-72
2023/08/02 00:49:41;;;;;;;6.07;2.58;;;22.90;99.90;;;;;;5050069;28;20454;-71
2023/08/02 00:52:08;;;;;;;6.72;2.20;;;23.00;99.90;;;;;;5049141;28;20407;-71
2023/08/02 00:54:34;;;;;;;3.42;1.70;;;23.00;99.90;;;;;;5047307;28;20447;-71
2023/08/02 00:57:02;;;;;;;3.30;1.80;;;22.90;97.50;;;;;;5034114;28;21132;-71
2023/08/02 00:59:29;;;;;;;3.30;1.70;;;22.90;95.40;;;;;;5049355;28;20447;-71
2023/08/02 01:01:56;;;;;;;4.67;1.60;;;22.90;94.90;;;;;;5047052;28;20438;-71
2023/08/02 01:04:22;;;;;;;4.20;1.50;;;23.00;93.90;;;;;;5050484;28;21137;-71
2023/08/02 01:07:00;;;;;;;5.13;1.60;;;22.90;91.70;;;;;;5045271;28;20487;-71
2023/08/02 01:10:15;;;;;;;2.47;1.40;;;22.90;90.60;;;;;;5075683;28;20421;-71
2023/08/02 01:12:46;;;;;;;3.30;1.60;;;22.80;90.00;;;;;;5007758;28;21082;-72
2023/08/02 01:15:15;;;;;;;3.20;1.50;;;22.80;89.60;;;;;;5048748;28;20903;-71
2023/08/02 01:17:45;;;;;;;4.07;1.60;;;22.80;90.30;;;;;;5051133;28;20466;-72
2023/08/02 01:20:12;;;;;;;5.32;1.58;;;22.90;90.20;;;;;;5047728;28;20446;-71
2023/08/02 01:22:38;;;;;;;4.07;1.60;;;22.90;90.20;;;;;;5058831;28;20408;-71
2023/08/02 01:25:06;;;;;;;2.40;1.30;;;22.90;89.70;;;;;;5042795;28;20422;-71
2023/08/02 01:27:54;;;;;;;3.35;1.30;;;22.90;89.40;;;;;;5045234;28;21038;-72
2023/08/02 01:30:25;;;;;;;3.38;1.40;;;23.00;89.00;;;;;;5041844;28;20405;-71
2023/08/02 01:32:53;;;;;;;1.65;1.10;;;23.00;87.30;;;;;;5046477;28;20411;-71
2023/08/02 01:35:21;;;;;;;3.55;1.20;;;23.00;84.00;;;;;;5064532;28;21331;-71
2023/08/02 01:37:49;;;;;;;1.60;1.10;;;23.10;82.70;;;;;;5039701;28;20421;-71
2023/08/02 01:40:16;;;;;;;1.77;1.17;;;23.10;83.90;;;;;;5045408;28;20458;-71
2023/08/02 01:42:42;;;;;;;2.60;1.10;;;23.10;82.80;;;;;;5048429;28;20419;-71
2023/08/02 01:45:09;;;;;;;1.30;0.93;;;23.10;81.00;;;;;;5041931;28;21109;-71
2023/08/02 01:47:36;;;;;;;2.10;1.10;;;23.10;80.90;;;;;;5046444;28;20426;-72
2023/08/02 01:50:02;;;;;;;4.15;1.20;;;23.20;80.60;;;;;;5045769;28;20411;-72
2023/08/02 01:52:28;;;;;;;1.95;1.10;;;23.20;79.50;;;;;;5046995;28;21065;-72
2023/08/02 01:54:54;;;;;;;2.72;1.10;;;23.20;79.10;;;;;;5040965;28;20409;-72
2023/08/02 01:57:21;;;;;;;3.03;1.10;;;23.20;78.70;;;;;;5044403;28;20471;-72
2023/08/02 01:59:47;;;;;;;1.27;1.10;;;23.20;78.10;;;;;;5049054;28;20522;-72
2023/08/02 02:02:14;;;;;;;1.80;0.90;;;23.20;77.10;;;;;;5048536;28;20902;-72
2023/08/02 02:04:40;;;;;;;1.13;0.82;;;23.20;76.60;;;;;;5049547;28;20415;-73
2023/08/02 02:07:06;;;;;;;1.20;0.90;;;23.20;76.70;;;;;;5065856;28;23044;-72
2023/08/02 02:09:33;;;;;;;2.00;0.80;;;23.20;76.50;;;;;;5050910;28;20407;-72
2023/08/02 02:11:59;;;;;;;1.40;0.90;;;23.20;75.70;;;;;;5045021;28;20416;-72
2023/08/02 02:14:25;;;;;;;2.58;1.02;;;23.10;75.30;;;;;;5053091;28;20447;-71
2023/08/02 02:16:51;;;;;;;4.75;1.08;;;23.00;75.40;;;;;;5051740;28;20430;-72
2023/08/02 02:19:20;;;;;;;1.27;0.90;;;23.00;75.80;;;;;;5053683;28;21252;-72
2023/08/02 02:21:46;;;;;;;1.95;1.10;;;22.80;75.30;;;;;;5085421;28;20423;-72
2023/08/02 02:24:12;;;;;;;2.00;0.80;;;22.80;75.80;;;;;;5037064;28;20482;-72
2023/08/02 02:26:38;;;;;;;2.17;1.00;;;22.80;75.90;;;;;;5054030;28;20509;-72
2023/08/02 02:29:04;;;;;;;0.90;0.80;;;22.80;75.80;;;;;;5055434;28;20457;-72
2023/08/02 02:31:31;;;;;;;1.17;0.93;;;22.70;76.50;;;;;;5083074;28;20413;-72
2023/08/02 02:33:57;;;;;;;1.35;0.95;;;22.70;76.10;;;;;;5054211;28;20917;-72
2023/08/02 02:36:23;;;;;;;2.80;0.90;;;22.70;76.50;;;;;;5054704;28;21424;-72
2023/08/02 02:38:49;;;;;;;2.50;1.35;;;22.70;77.40;;;;;;5056837;28;20854;-72
2023/08/02 02:41:16;;;;;;;1.90;1.30;;;22.70;79.30;;;;;;5050974;28;20922;-72
2023/08/02 02:43:42;;;;;;;3.03;1.45;;;22.80;82.00;;;;;;5053623;28;20417;-71
2023/08/02 02:46:08;;;;;;;2.63;1.30;;;22.80;83.40;;;;;;5056878;28;20577;-72
2023/08/02 02:48:34;;;;;;;3.47;1.40;;;22.90;84.50;;;;;;5036865;28;20922;-72
2023/08/02 02:51:01;;;;;;;2.53;1.27;;;22.90;84.20;;;;;;5053794;28;20504;-72
2023/08/02 02:53:28;;;;;;;2.05;1.23;;;22.90;84.10;;;;;;5082678;28;20412;-72
2023/08/02 02:55:56;;;;;;;2.90;1.35;;;23.00;84.40;;;;;;5055485;28;20419;-72
2023/08/02 02:58:22;;;;;;;2.58;1.50;;;23.00;84.40;;;;;;5053285;28;20877;-72
2023/08/02 03:00:49;;;;;;;2.15;1.30;;;23.00;85.30;;;;;;5067431;28;20416;-72
2023/08/02 03:03:15;;;;;;;1.73;1.30;;;23.10;86.90;;;;;;5053611;28;20426;-72
2023/08/02 03:05:42;;;;;;;3.90;1.80;;;23.10;87.10;;;;;;5054208;28;21182;-72
2023/08/02 03:08:09;;;;;;;3.83;1.55;;;23.10;88.20;;;;;;5054292;28;20816;-72
2023/08/02 03:10:35;;;;;;;7.47;1.83;;;23.10;89.10;;;;;;5053447;28;20417;-72
2023/08/02 03:13:03;;;;;;;4.30;1.83;;;23.10;90.90;;;;;;5055537;28;20411;-72
2023/08/02 03:15:30;;;;;;;3.33;1.90;;;23.10;91.90;;;;;;5053926;28;20411;-72
2023/08/02 03:17:56;;;;;;;4.68;2.00;;;23.10;91.90;;;;;;5052243;28;20526;-72
2023/08/02 03:20:22;;;;;;;5.05;2.10;;;23.20;92.90;;;;;;5052787;28;20471;-72
2023/08/02 03:22:48;;;;;;;3.15;1.90;;;23.20;93.50;;;;;;5052191;28;20443;-72
2023/08/02 03:25:15;;;;;;;4.65;2.00;;;23.20;93.60;;;;;;5053225;28;21170;-72
2023/08/02 03:27:41;;;;;;;6.27;2.50;;;23.20;94.70;;;;;;5051602;28;20419;-72
2023/08/02 03:30:07;;;;;;;5.60;2.10;;;23.20;96.10;;;;;;5063539;28;20403;-72
2023/08/02 03:32:34;;;;;;;7.22;2.20;;;23.20;96.10;;;;;;5069777;28;20403;-72
2023/08/02 03:35:00;;;;;;;5.15;2.50;;;23.20;96.60;;;;;;5065910;28;20575;-72
2023/08/02 03:37:26;;;;;;;7.38;2.45;;;23.20;98.00;;;;;;5053350;28;20416;-71
2023/08/02 03:39:52;;;;;;;6.93;2.67;;;23.20;98.30;;;;;;5054165;28;20508;-71
2023/08/02 03:42:18;;;;;;;8.03;2.80;;;23.30;98.50;;;;;;5052304;28;21098;-72
2023/08/02 03:44:45;;;;;;;4.25;2.40;;;23.20;99.60;;;;;;5052173;28;20798;-72
2023/08/02 03:47:11;;;;;;;5.78;2.50;;;23.20;99.90;;;;;;5051493;28;20434;-71
2023/08/02 03:49:40;;;;;;;6.43;2.50;;;23.20;99.90;;;;;;5053922;28;20408;-72
2023/08/02 03:52:06;;;;;;;6.30;2.28;;;23.10;99.50;;;;;;5052311;28;20833;-72
2023/08/02 03:54:33;;;;;;;6.63;2.28;;;23.10;98.80;;;;;;5053626;28;20805;-71
2023/08/02 03:56:59;;;;;;;5.10;2.23;;;23.20;98.10;;;;;;5052248;28;20436;-72
2023/08/02 03:59:25;;;;;;;8.02;2.42;;;23.10;97.90;;;;;;5054328;28;20495;-71
2023/08/02 04:01:51;;;;;;;3.67;1.80;;;23.10;96.80;;;;;;5051162;28;20424;-71
2023/08/02 04:04:18;;;;;;;4.75;1.70;;;23.10;95.80;;;;;;5051199;28;20919;-71
2023/08/02 04:06:44;;;;;;;5.47;1.58;;;23.10;94.30;;;;;;5052047;28;20483;-72
2023/08/02 04:09:11;;;;;;;2.75;1.35;;;23.10;93.20;;;;;;5051659;28;20786;-71
2023/08/02 04:11:37;;;;;;;3.05;1.40;;;23.10;92.40;;;;;;5050309;28;20941;-71
2023/08/02 04:14:06;;;;;;;3.20;1.50;;;23.00;91.50;;;;;;5052456;28;20414;-72
2023/08/02 04:16:32;;;;;;;3.05;1.33;;;23.00;91.10;;;;;;5051000;28;20411;-72
2023/08/02 04:19:00;;;;;;;3.35;1.30;;;23.00;90.60;;;;;;5049641;28;20534;-72
2023/08/02 04:21:26;;;;;;;5.50;1.50;;;22.90;90.10;;;;;;5035215;28;20487;-72
2023/08/02 04:23:52;;;;;;;3.63;1.27;;;22.80;89.80;;;;;;5050979;28;20439;-72
2023/08/02 04:26:19;;;;;;;2.75;1.27;;;22.70;89.30;;;;;;5049496;28;20428;-72
2023/08/02 04:28:46;;;;;;;2.47;1.38;;;22.70;89.40;;;;;;5050388;28;20867;-72
2023/08/02 04:31:16;;;;;;;2.90;1.48;;;22.60;90.10;;;;;;5079615;28;20764;-72
2023/08/02 04:33:42;;;;;;;2.17;1.30;;;22.50;90.00;;;;;;5053155;28;20424;-72
2023/08/02 04:36:08;;;;;;;2.83;1.38;;;22.50;90.10;;;;;;5034473;28;20407;-71
2023/08/02 04:38:34;;;;;;;5.72;1.33;;;22.50;90.40;;;;;;5051918;28;21001;-72
2023/08/02 04:41:00;;;;;;;3.35;1.20;;;22.50;90.60;;;;;;5051294;28;20426;-72
2023/08/02 04:43:27;;;;;;;3.97;1.35;;;22.50;90.50;;;;;;5052503;28;20439;-72
2023/08/02 04:45:54;;;;;;;3.97;1.40;;;22.60;90.40;;;;;;5051024;28;20419;-71
2023/08/02 04:48:20;;;;;;;3.72;1.25;;;22.60;90.40;;;;;;5048799;28;20420;-71
2023/08/02 04:50:46;;;;;;;6.10;1.33;;;22.70;90.50;;;;;;5050964;28;20439;-71
2023/08/02 04:53:13;;;;;;;3.55;1.10;;;22.70;90.30;;;;;;5051108;28;20940;-71
2023/08/02 04:55:44;;;;;;;2.22;1.10;;;22.80;90.20;;;;;;5066157;28;20415;-71
2023/08/02 04:58:10;;;;;;;3.72;1.17;;;22.80;89.80;;;;;;5050214;28;20441;-71
2023/08/02 05:00:36;;;;;;;2.38;1.33;;;22.90;89.60;;;;;;5033393;28;20511;-72
2023/08/02 05:03:03;;;;;;;2.83;1.00;;;23.00;88.40;;;;;;5052889;28;20415;-72
2023/08/02 05:05:30;;;;;;;2.75;1.20;;;23.10;87.80;;;;;;5065124;28;20411;-72
2023/08/02 05:07:56;;;;;;;2.30;1.10;;;23.20;89.20;;;;;;5049482;28;20930;-72
2023/08/02 05:10:22;;;;;;;2.85;1.20;;;23.20;89.30;;;;;;5051638;28;21974;-72
2023/08/02 05:12:48;;;;;;;2.40;1.30;;;23.30;90.00;;;;;;5065117;28;20407;-72
2023/08/02 05:15:15;;;;;;;2.08;1.20;;;23.40;90.50;;;;;;5051454;28;20518;-72
2023/08/02 05:17:41;;;;;;;3.70;1.67;;;23.40;90.80;;;;;;5051706;28;21644;-72
2023/08/02 05:20:08;;;;;;;2.47;1.50;;;23.50;91.20;;;;;;5050330;28;20932;-72
2023/08/02 05:22:34;;;;;;;3.50;1.57;;;23.50;91.30;;;;;;5034645;28;20415;-71
2023/08/02 05:25:00;;;;;;;2.50;1.50;;;23.60;91.50;;;;;;5050046;28;20803;-72
2023/08/02 05:27:27;;;;;;;2.47;1.30;;;23.70;91.30;;;;;;5052346;28;20472;-72
2023/08/02 05:29:53;;;;;;;2.70;1.40;;;23.70;90.50;;;;;;5051209;28;20416;-72
2023/08/02 05:32:19;;;;;;;3.33;1.42;;;23.80;90.50;;;;;;5053140;28;20534;-72
2023/08/02 05:34:45;;;;;;;2.33;1.48;;;23.80;90.50;;;;;;5050128;28;20445;-71
2023/08/02 05:37:12;;;;;;;2.28;1.40;;;23.80;90.50;;;;;;5050623;28;20850;-72
2023/08/02 05:39:38;;;;;;;3.10;1.40;;;23.90;90.50;;;;;;5047051;28;20415;-72
2023/08/02 05:42:05;;;;;;;3.28;1.58;;;24.00;90.70;;;;;;5048757;28;20604;-72
2023/08/02 05:44:31;;;;;;;4.57;1.87;;;24.00;91.20;;;;;;5048080;28;20877;-72
2023/08/02 05:46:57;;;;;;;6.20;1.97;;;24.10;91.80;;;;;;5050638;28;20421;-72
2023/08/02 05:49:23;;;;;;;4.97;1.93;;;24.20;92.40;;;;;;5049714;28;20427;-72
2023/08/02 05:51:50;;;;;;;4.40;1.80;;;24.30;92.80;;;;;;5052433;28;20426;-72
2023/08/02 05:54:16;;;;;;;3.28;1.85;;;24.30;92.60;;;;;;5050794;28;20528;-72
2023/08/02 05:56:44;;;;;;;2.90;1.80;;;24.40;92.40;;;;;;5049060;28;20461;-72
2023/08/02 05:59:10;;;;;;;3.70;1.93;;;24.40;92.40;;;;;;5049712;28;20945;-72
2023/08/02 06:01:36;;;;;;;5.57;2.03;;;24.50;92.40;;;;;;5036945;28;20817;-72
2023/08/02 06:04:03;;;;;;;2.92;1.73;;;24.50;92.70;;;;;;5050445;28;21227;-73
2023/08/02 06:06:29;;;;;;;4.13;1.92;;;24.60;92.50;;;;;;5047790;28;20480;-72
2023/08/02 06:08:58;;;;;;;3.88;1.83;;;24.70;93.00;;;;;;5049849;28;20411;-72
2023/08/02 06:11:24;;;;;;;4.65;1.70;;;24.70;92.70;;;;;;5048745;28;21109;-72
2023/08/02 06:13:50;;;;;;;3.53;1.90;;;24.80;92.50;;;;;;5053386;28;20400;-72
2023/08/02 06:16:17;;;;;;;2.83;1.73;;;24.90;92.30;;;;;;5053656;28;20449;-72
2023/08/02 06:18:43;;;;;;;4.90;1.83;;;24.90;92.60;;;;;;5053541;28;20502;-72
2023/08/02 06:21:09;;;;;;;3.67;1.90;;;25.00;93.00;;;;;;5054115;28;20415;-72
2023/08/02 06:23:35;;;;;;;4.07;1.90;;;25.00;93.10;;;;;;5054632;28;20496;-72
2023/08/02 06:26:02;;;;;;;3.15;1.90;;;25.10;93.40;;;;;;5051816;28;20411;-72
2023/08/02 06:28:28;;;;;;;3.88;1.90;;;25.20;93.10;;;;;;5053702;28;20427;-72
2023/08/02 06:30:54;;;;;;;10.00;1.80;;;25.30;93.00;;;;;;5052833;28;20416;-72
2023/08/02 06:33:20;;;;;;;2.47;1.58;;;25.30;92.10;;;;;;5054266;28;20406;-72
2023/08/02 06:35:49;;;;;;;2.58;1.60;;;25.40;91.70;;;;;;5034281;28;20448;-72
2023/08/02 06:38:15;;;;;;;3.95;2.03;;;25.50;91.30;;;;;;5068571;28;20423;-72
2023/08/02 06:40:41;;;;;;;3.47;1.92;;;25.60;92.80;;;;;;5048605;28;20427;-72
2023/08/02 06:43:08;;;;;;;3.92;2.10;;;25.70;93.50;;;;;;5051715;28;20424;-72
2023/08/02 06:45:34;;;;;;;3.33;1.80;;;25.80;93.60;;;;;;5052144;28;22264;-72
2023/08/02 06:48:01;;;;;;;4.05;1.88;;;25.80;93.40;;;;;;5056450;28;20446;-72
2023/08/02 06:50:27;;;;;;;2.17;1.50;;;25.90;93.20;;;;;;5054203;28;20476;-72
2023/08/02 06:52:53;;;;;;;4.33;1.80;;;26.00;91.80;;;;;;5070190;28;20406;-73
2023/08/02 06:55:19;;;;;;;4.32;1.70;;;26.10;91.90;;;;;;5058636;28;20411;-72
2023/08/02 06:57:46;;;;;;;4.93;1.58;;;26.10;91.50;;;;;;5058691;28;20407;-72
2023/08/02 07:00:13;;;;;;;5.38;1.60;;;26.20;91.40;;;;;;5053724;28;20430;-72
2023/08/02 07:02:39;;;;;;;4.45;1.73;;;26.30;91.10;;;;;;5042275;28;20457;-72
2023/08/02 07:05:05;;;;;;;4.30;1.73;;;26.30;91.80;;;;;;5055603;28;20724;-72
2023/08/02 07:07:31;;;;;;;3.85;1.60;;;26.40;92.00;;;;;;5053640;28;20496;-72
2023/08/02 07:09:58;;;;;;;2.60;1.60;;;26.50;90.50;;;;;;5060038;28;20403;-72
2023/08/02 07:12:24;;;;;;;4.18;1.55;;;26.70;90.70;;;;;;5060949;28;20418;-72
2023/08/02 07:14:50;;;;;;;2.50;1.33;;;26.70;89.30;;;;;;5061935;28;20971;-73
2023/08/02 07:17:16;;;;;;;4.25;2.10;;;26.80;90.00;;;;;;5043477;28;20412;-72
2023/08/02 07:19:43;;;;;;;5.25;2.25;;;26.90;92.80;;;;;;5058539;28;20415;-72
2023/08/02 07:22:10;;;;;;;4.78;1.90;;;27.10;93.00;;;;;;5055123;28;20411;-72
2023/08/02 07:24:36;;;;;;;4.70;1.90;;;27.10;92.80;;;;;;5055451;28;20440;-72
2023/08/02 07:27:02;;;;;;;4.90;1.90;;;27.20;93.10;;;;;;5056823;28;20543;-72
2023/08/02 07:29:29;;;;;;;4.15;1.70;;;27.30;93.40;;;;;;5057015;28;20446;-72
2023/08/02 07:31:55;;;;;;;4.22;1.90;;;27.40;93.30;;;;;;5054343;28;20416;-72
2023/08/02 07:34:22;;;;;;;4.95;1.90;;;27.50;93.60;;;;;;5069719;28;20439;-73
2023/08/02 07:36:48;;;;;;;4.95;1.90;;;27.60;93.20;;;;;;5053711;28;20408;-72
2023/08/02 07:39:14;;;;;;;5.45;2.40;;;27.60;93.20;;;;;;5054335;28;20408;-72
2023/08/02 07:41:41;;;;;;;9.52;2.80;;;27.70;95.60;;;;;;5055436;28;20442;-72
2023/08/02 07:44:07;;;;;;;5.78;2.40;;;27.90;99.50;;;;;;5057280;28;20826;-72
2023/08/02 07:46:33;;;;;;;5.43;2.73;;;28.10;99.70;;;;;;5053673;28;20407;-72
2023/08/02 07:49:00;;;;;;;6.50;2.80;;;28.10;99.90;;;;;;5048691;28;20449;-72
2023/08/02 07:51:26;;;;;;;7.45;2.70;;;28.20;99.90;;;;;;5045811;28;20415;-72
2023/08/02 07:53:52;;;;;;;6.28;2.78;;;28.20;99.90;;;;;;5047750;28;20546;-72
2023/08/02 07:56:19;;;;;;;6.05;2.80;;;28.30;99.90;;;;;;5045735;28;20423;-72
2023/08/02 07:58:45;;;;;;;4.00;2.60;;;28.40;99.90;;;;;;5029603;28;20459;-72
2023/08/02 08:01:12;;;;;;;7.90;2.80;;;28.50;99.90;;;;;;5049592;28;20428;-72
2023/08/02 08:03:38;;;;;;;6.78;3.10;;;28.60;99.90;;;;;;5050799;28;21333;-72
2023/08/02 08:06:16;;;;;;;8.23;2.55;;;28.70;99.90;;;;;;5048431;28;20423;-72
2023/08/02 08:08:42;;;;;;;6.80;2.72;;;28.70;99.90;;;;;;5043175;28;20423;-72
2023/08/02 08:11:09;;;;;;;6.47;3.00;;;28.80;99.90;;;;;;5045865;28;22300;-72
2023/08/02 08:13:35;;;;;;;7.32;2.85;;;28.90;99.90;;;;;;5026193;28;20434;-72
2023/08/02 08:16:02;;;;;;;9.05;3.00;;;28.90;99.90;;;;;;5047587;28;20423;-73
2023/08/02 08:18:32;;;;;;;8.60;3.00;;;29.00;99.90;;;;;;5052749;28;20747;-72
2023/08/02 08:21:01;;;;;;;5.40;2.90;;;29.10;99.90;;;;;;5049844;28;20407;-73
2023/08/02 08:23:28;;;;;;;7.07;3.00;;;29.20;99.90;;;;;;5053446;28;20842;-72
2023/08/02 08:25:54;;;;;;;7.10;2.83;;;29.20;99.90;;;;;;5051007;28;20913;-72
2023/08/02 08:28:21;;;;;;;10.48;2.95;;;29.20;99.90;;;;;;5054267;28;21075;-72
2023/08/02 08:30:47;;;;;;;10.00;3.10;;;29.30;99.90;;;;;;5047194;28;20412;-72
2023/08/02 08:33:14;;;;;;;8.23;3.17;;;29.40;99.90;;;;;;5067604;28;21112;-73
2023/08/02 08:35:40;;;;;;;5.85;2.85;;;29.40;99.90;;;;;;5050023;28;20442;-73
2023/08/02 08:38:07;;;;;;;7.00;3.08;;;29.50;99.90;;;;;;5070398;28;20962;-72
2023/08/02 08:40:33;;;;;;;6.33;2.80;;;29.60;99.90;;;;;;5054446;28;20538;-73
2023/08/02 08:43:01;;;;;;;8.35;2.70;;;29.70;99.90;;;;;;5039277;28;20454;-72
2023/08/02 08:45:29;;;;;;;7.13;2.78;;;29.70;99.90;;;;;;5052491;28;20487;-72
2023/08/02 08:47:56;;;;;;;7.20;2.95;;;29.90;99.90;;;;;;5054574;28;20924;-72
2023/08/02 08:50:27;;;;;;;8.75;2.92;;;29.90;99.90;;;;;;5051607;28;20818;-72
2023/08/02 08:52:57;;;;;;;8.02;2.97;;;30.10;99.90;;;;;;5055584;28;20510;-72
2023/08/02 08:55:28;;;;;;;5.55;2.63;;;30.20;99.90;;;;;;5052806;28;20412;-72
2023/08/02 08:57:55;;;;;;;8.93;2.70;;;30.30;99.90;;;;;;5052173;28;20450;-72
2023/08/02 09:00:23;;;;;;;4.87;2.60;;;30.40;99.90;;;;;;5039334;28;20411;-72
2023/08/02 09:02:51;;;;;;;5.90;2.70;;;30.50;99.90;;;;;;5038861;28;20423;-72
2023/08/02 09:05:18;;;;;;;6.15;3.00;;;30.60;99.90;;;;;;5034346;28;20423;-72
2023/08/02 09:07:44;;;;;;;6.37;2.90;;;30.70;99.90;;;;;;5068053;28;20839;-72
2023/08/02 09:10:11;;;;;;;6.20;3.30;;;30.80;99.90;;;;;;5080973;28;20399;-72
2023/08/02 09:12:46;;;;;;;9.65;2.83;;;30.80;99.90;;;;;;5054560;28;20438;-72
2023/08/02 09:15:15;;;;;;;9.43;2.97;;;31.00;99.90;;;;;;5051589;28;20458;-72
2023/08/02 09:17:59;;;;;;;7.67;2.80;;;31.10;99.90;;;;;;5054162;28;20421;-72
2023/08/02 09:20:27;;;;;;;7.72;3.20;;;31.20;99.90;;;;;;5053696;28;20424;-72
2023/08/02 09:22:54;;;;;;;8.47;2.90;;;31.30;99.90;;;;;;5056490;28;20857;-72
2023/08/02 09:25:26;;;;;;;7.45;3.00;;;31.30;99.90;;;;;;5051376;28;20825;-72
2023/08/02 09:27:55;;;;;;;7.83;3.10;;;31.40;99.90;;;;;;5049296;28;20895;-72
2023/08/02 09:30:32;;;;;;;6.80;3.08;;;31.40;99.90;;;;;;5046983;28;20401;-72
2023/08/02 09:33:08;;;;;;;8.27;3.10;;;31.50;99.90;;;;;;5051652;28;20411;-72
2023/08/02 09:35:55;;;;;;;8.07;2.80;;;31.60;99.90;;;;;;5053509;28;21070;-72
2023/08/02 09:38:22;;;;;;;7.60;2.53;;;31.70;99.90;;;;;;5070473;28;20468;-72
2023/08/02 09:40:48;;;;;;;6.82;3.03;;;31.90;99.90;;;;;;5065114;28;24426;-72
2023/08/02 09:43:15;;;;;;;10.15;2.90;;;31.90;99.90;;;;;;5044467;28;20489;-72
2023/08/02 09:45:42;;;;;;;9.32;2.95;;;32.00;99.90;;;;;;5049958;28;20430;-72
2023/08/02 09:48:08;;;;;;;7.80;2.83;;;32.10;99.90;;;;;;5055707;28;20420;-72
2023/08/02 09:51:03;;;;;;;9.93;2.85;;;32.10;99.90;;;;;;5046792;28;20412;-72
2023/08/02 09:53:29;;;;;;;5.53;2.70;;;32.10;99.90;;;;;;5050029;28;20400;-72
2023/08/02 09:56:00;;;;;;;7.93;2.80;;;32.20;99.90;;;;;;5050517;28;20415;-72
2023/08/02 09:58:29;;;;;;;7.63;2.88;;;32.20;99.90;;;;;;5049552;28;20503;-72
2023/08/02 10:00:56;;;;;;;6.35;2.58;;;32.30;99.90;;;;;;5046039;28;20510;-72
2023/08/02 10:03:26;;;;;;;5.85;2.72;;;32.30;99.90;;;;;;5050765;28;20419;-72
2023/08/02 10:05:58;;;;;;;8.35;3.10;;;32.40;99.90;;;;;;5050208;28;20774;-72
2023/08/02 10:08:30;;;;;;;7.38;2.85;;;32.40;99.90;;;;;;5050137;28;20420;-72
2023/08/02 10:10:59;;;;;;;7.25;2.78;;;32.50;99.90;;;;;;5036010;28;20421;-72
2023/08/02 10:13:32;;;;;;;9.30;2.83;;;32.70;99.90;;;;;;5051290;28;20502;-72
2023/08/02 10:15:59;;;;;;;5.55;2.38;;;32.80;99.90;;;;;;5066966;28;20720;-72
2023/08/02 10:18:28;;;;;;;5.13;2.50;;;32.90;99.90;;;;;;5038455;28;20412;-72
2023/08/02 10:20:57;;;;;;;10.18;2.97;;;32.90;99.90;;;;;;5055580;28;20505;-72
2023/08/02 10:23:24;;;;;;;5.72;2.70;;;32.80;99.90;;;;;;5058737;28;20457;-72
2023/08/02 10:25:51;;;;;;;5.87;2.50;;;32.80;99.90;;;;;;5054222;28;20917;-72
2023/08/02 10:28:18;;;;;;;6.78;2.53;;;32.80;99.90;;;;;;5061826;28;20411;-72
2023/08/02 10:30:45;;;;;;;7.43;2.70;;;32.90;99.90;;;;;;5058919;28;20489;-70
2023/08/02 10:33:19;;;;;;;7.05;2.75;;;32.90;99.90;;;;;;5058370;28;20399;-70
2023/08/02 10:36:04;;;;;;;6.90;2.47;;;32.80;99.90;;;;;;5062005;28;20407;-70
2023/08/02 10:38:41;;;;;;;9.32;2.78;;;32.80;99.90;;;;;;5059490;28;20510;-70
2023/08/02 10:41:11;;;;;;;8.00;2.80;;;32.80;99.90;;;;;;5059534;28;20412;-70
2023/08/02 10:44:12;;;;;;;6.53;2.65;;;32.90;99.90;;;;;;5064078;28;20456;-70
2023/08/02 10:46:39;;;;;;;8.38;2.40;;;32.90;99.90;;;;;;5069032;28;20421;-70
2023/08/02 10:49:31;;;;;;;5.20;2.38;;;33.00;99.90;;;;;;5043174;28;21041;-70
2023/08/02 10:52:24;;;;;;;6.57;2.63;;;32.90;99.90;;;;;;5057065;28;20401;-70
2023/08/02 10:55:13;;;;;;;8.68;2.58;;;32.90;99.90;;;;;;5062864;28;20408;-70
2023/08/02 10:58:07;;;;;;;6.22;2.20;;;32.90;99.90;;;;;;5063271;28;20411;-70
2023/08/02 11:00:39;;;;;;;7.10;2.78;;;32.90;99.90;;;;;;5045235;28;20399;-70
2023/08/02 11:03:05;;;;;;;5.60;2.55;;;32.90;99.90;;;;;;5058378;28;20403;-70
2023/08/02 11:05:45;;;;;;;8.80;2.58;;;32.80;99.90;;;;;;5060394;28;20502;-70
2023/08/02 11:08:12;;;;;;;5.70;2.47;;;32.80;99.90;;;;;;5059079;28;20421;-70
2023/08/02 11:10:53;;;;;;;9.07;2.47;;;32.80;99.90;;;;;;5058131;28;20526;-70
2023/08/02 11:13:21;;;;;;;7.53;2.60;;;32.80;99.90;;;;;;5063383;28;20472;-70
2023/08/02 11:16:09;;;;;;;5.35;2.40;;;32.80;99.90;;;;;;5056981;28;20486;-70
2023/08/02 11:18:35;;;;;;;8.73;2.63;;;32.80;99.90;;;;;;5057801;28;20417;-70
2023/08/02 11:21:13;;;;;;;5.95;2.53;;;32.80;99.90;;;;;;5055081;28;20404;-70
2023/08/02 11:23:41;;;;;;;10.30;2.67;;;32.80;99.90;;;;;;5060909;28;20427;-70
2023/08/02 11:26:14;;;;;;;8.38;2.42;;;32.80;99.90;;;;;;5072973;28;20403;-70
2023/08/02 11:28:42;;;;;;;9.70;2.40;;;32.70;99.70;;;;;;5061838;28;20589;-70
2023/08/02 11:31:10;;;;;;;5.73;2.13;;;32.70;99.70;;;;;;5058930;28;20431;-70
2023/08/02 11:33:40;;;;;;;8.57;2.47;;;32.70;99.90;;;;;;5059337;28;20759;-70
2023/08/02 11:36:07;;;;;;;8.32;2.83;;;32.70;99.90;;;;;;5042805;28;21157;-70
2023/08/02 11:38:35;;;;;;;6.05;2.50;;;32.70;99.60;;;;;;5056806;28;20416;-70
2023/08/02 11:41:01;;;;;;;8.80;2.47;;;32.70;99.00;;;;;;5057690;28;20426;-70
2023/08/02 11:43:38;;;;;;;8.00;2.37;;;32.70;99.20;;;;;;5062797;28;20746;-70
2023/08/02 11:46:25;;;;;;;5.90;2.30;;;32.70;99.70;;;;;;5066848;28;20410;-70
2023/08/02 11:48:52;;;;;;;6.50;2.20;;;32.70;99.20;;;;;;5062420;28;20953;-70
2023/08/02 11:51:22;;;;;;;6.75;2.30;;;32.60;99.60;;;;;;5056503;28;20403;-70
2023/08/02 11:53:55;;;;;;;7.50;2.00;;;32.60;99.10;;;;;;5049429;28;20750;-70
2023/08/02 11:56:27;;;;;;;4.87;2.40;;;32.50;99.30;;;;;;5061800;28;20407;-70
2023/08/02 11:58:55;;;;;;;9.57;2.15;;;32.50;99.80;;;;;;5039630;28;20904;-70
2023/08/02 12:01:22;;;;;;;5.72;2.20;;;32.50;99.70;;;;;;5051146;28;20763;-70
2023/08/02 12:04:00;;;;;;;5.45;2.42;;;32.50;99.80;;;;;;5056368;28;20402;-70
2023/08/02 12:07:01;;;;;;;6.50;2.22;;;32.50;99.80;;;;;;5055647;28;20417;-70
2023/08/02 12:09:43;;;;;;;6.70;2.33;;;32.50;99.70;;;;;;5054798;28;20888;-70
2023/08/02 12:12:09;;;;;;;6.65;2.35;;;32.50;99.40;;;;;;5055052;28;20417;-70
2023/08/02 12:14:35;;;;;;;6.28;2.00;;;32.40;99.30;;;;;;5057848;28;20414;-70
2023/08/02 12:17:02;;;;;;;6.85;2.25;;;32.40;99.60;;;;;;5057122;28;20794;-70
2023/08/02 12:19:39;;;;;;;4.47;1.95;;;32.40;99.30;;;;;;5059248;28;20419;-70
2023/08/02 12:22:06;;;;;;;5.60;2.10;;;32.40;99.40;;;;;;5051500;28;20419;-70
2023/08/02 12:24:32;;;;;;;7.78;2.45;;;32.50;99.40;;;;;;5056081;28;20408;-70
2023/08/02 12:27:20;;;;;;;8.75;2.30;;;32.50;99.40;;;;;;5054983;28;20413;-70
2023/08/02 12:29:47;;;;;;;4.40;2.40;;;32.50;98.80;;;;;;5056280;28;20423;-70
2023/08/02 12:32:27;;;;;;;5.63;2.00;;;32.50;98.60;;;;;;5069681;28;20404;-70
2023/08/02 12:34:53;;;;;;;7.63;2.05;;;32.50;97.00;;;;;;5055062;28;20494;-70
2023/08/02 12:37:20;;;;;;;5.97;2.27;;;32.50;96.60;;;;;;5058983;28;21157;-70
2023/08/02 12:39:46;;;;;;;6.43;2.20;;;32.50;96.50;;;;;;5044782;28;21260;-70
2023/08/02 12:42:12;;;;;;;6.43;2.28;;;32.50;96.90;;;;;;5059081;28;20430;-70
2023/08/02 12:44:40;;;;;;;5.33;2.00;;;32.60;96.40;;;;;;5057211;28;20411;-70
2023/08/02 12:47:07;;;;;;;6.97;2.10;;;32.70;95.80;;;;;;5055388;28;20424;-70
2023/08/02 12:49:34;;;;;;;5.60;2.10;;;32.60;95.70;;;;;;5038133;28;20805;-70
2023/08/02 12:52:00;;;;;;;5.85;2.33;;;32.60;95.80;;;;;;5053760;28;20881;-70